Timeline UpdatesTrip UpdatesNews PostsPvt PostsTravel TipsAdmin PostsConv PostsFollowed PostsChat RequestsBlog PostsPNR Posts

Disclaimer
Search
 
 
Tue Sep 23, 2014 05:49:55 ISTHomeTrainsΣChainsAtlasPNRForumGalleryNewsFAQTripsMembersLoginFeedback
No Recent News for this Train
Other Trains in the News **new
Latest...
Temporary Stop at Vindhyachal (BDL) for 2 min from 31/3/14-11/4/14 #1040164. ***Temporary Augmentation of 1 3AC coach from 4/4/14-27/6/14 #1043381
Wed Apr 02, 2014 (11:27PM)
⇐ Return Journey: Train# 15648

15647/Mumbai LTT-Guwahati Weekly Express

Time-Table HAS CHANGED.
Sep 01 (11:54PM)
Change Departure Station:
Change Arrival Station:
Post a Train Travel TipPost a Train Travel Tip **new
Post a Comment/Question/Picture/VideoPost a Comment/Question/Picture/Video
Pantry/Catering
✓ Pantry Car Avbl
✓ Catering Avbl
RSA - Rake Sharing
Rake/Coach Composition
2A-1; 3A-3; SL-12; GEN-3; PC-1; SLR-2 :: 22 COACH
Loco
ET-GHY =>ET WDMx
News    PNR    Forum    Time-Table    Availability    Fare Chart    Map    Arr/Dep History    Trips    Gallery    ΣChains    X/O    Timeline    
Travel Time: 52h 55m    52 halts    Distance: 2739 km    Avg Speed: 51 km/hr
Type: Mail/Express
Zone: NFR/Northeast Frontier
Departs @ 08:05 (Avg on time)
Platform# 5
     F 
Mumbai Lokmanya Tilak Terminus/LTT 
Arrives @ 13:00 +2 nights (Avg 54m late)
Platform# ???
S      
Guwahati/GHY 

52 halts. 436 intermediate Stations between Mumbai Lokmanya Tilak Terminus and Guwahati

Show ALL intermediate Stations  Show Old Time-Table

#CodeStation NameX/OArrivesAvgDepartsAvgHaltPFDay#KmSpeedElevZoneAddress
1LTTMumbai Lokmanya Tilak Terminus (5)»  -08:05+0510.0737mCRMumbai - 400089, Maharashtra
2KYNKalyan Junction (8)X  08:35+1908:40+195m4136.74710mCRKalyan 421301, Maharashtra
3IGPIgatpuri (4)X10:35 10:25+210:40 10:30+105m21118.571589mCRIgatpuri 422403, Maharashtra
4DVLDevlali (3)X  11:08+2211:10+232m11163.423561mCRDist. Nashik 422401, Maharashtra
5NKNasik Road (3)  11:28 11:25+1411:30+152 5m11169.197563mCRNashik 422101, Maharashtra
6MMRManmad Junction (6)  12:25 12:15+1712:30 12:20+175m11241.985580mCRManmad 423104, Maharashtra
7BSLBhusaval Junction (8)X  14:45 14:30+2214:55 14:40+2710m--1426.176208mCRBhusaval 425201, Maharashtra
8BAUBurhanpur (2)  15:38 15:23+4715:40 15:25+472m21480.634269mCRBurhanpur, Madhya Pradesh
9KNWKhandwa Junction (5)  17:35 17:25+617:40 17:30+85m--1549.595310mCRKhandwa, Madhya Pradesh
10HDHarda (3)  18:38+2218:40+222m--1657.157289mWCRHarda, Madhya Pradesh
11ETItarsi Junction (7)X20:00+520:10+1410m--1732.972329mWCRItarsi 461111, Madhya Pradesh
12PPIPipariya (3)  21:06+3921:08+392m--1800.181338mWCRPiparia, Madhya Pradesh
13JBPJabalpur Junction (4)X  23:20+3823:30+4010m41977.978416mWCRJabalpur, Madhya Pradesh
14KTEKatni Junction (6)X  00:40+4300:45+445m--21068.774387mWCRKatni, Madhya Pradesh
15STASatna Junction (3)XO  02:10 02:05+4102:20 02:15+3910m--21167.147322mWCRSatna, Madhya Pradesh
16COIChheoki Junction (3)  06:05 05:50+1006:10 05:55+135m--21337.18096mNCRDist.-Allahabad, Uttar Pradesh
17MZPMirzapur (3)X  07:10 06:55+2007:15 07:00+205m--21417.53388mNCRMirzapur, Uttar Pradesh
18MGSMughal Sarai Junction (8)  08:55+409:10+615m--21480.77583mECRMughalsarai 232101, Uttar Pradesh
19DLNDildarnagar Junction (2)  09:56+1109:58+112m--21538.48072mECRDildarnagar, Uttar Pradesh
20BXRBuxar (3)  10:25+1410:27+162m--21574.68967mECRBuxar, Bihar
21DUREDumraon (3)  10:38+2310:40+252m--21590.98970mECRDumraon, Bihar
22ARAAra Junction (3)  11:19 11:15+2611:21 11:17+272m--21643.17963mECRarrah( 06182-233411), Bihar
23DNRDanapur (5)X  11:47+1:2111:57+1:3410m--21682.61158mECRKhagaul, Bihar
24PNBEPatna Junction (10)X  12:50+1:0613:00+1:2110m821692.03557mECRPatna 800001, Bihar
25PNCPatna Saheb (3)  13:17+1:5213:19+1:532m--21701.94359mECRPatna 800008, Bihar
26FUTFatwa (6)  13:36+1:5013:38+1:552m--21714.16353mECRPatna, Bihar
27KOOKhusropur (2)  13:46+1:5813:48+2:022m--21722.66452mECRPatna, Bihar
28BKPBakhtiyarpur Junction (5)  14:02+2:0714:04+2:182m--21737.46051mECRPatna, Bihar
29BARHBarh (3)  14:22+2:2414:24+2:252m--21755.54349mECRBarh, Bihar
30MKAMokama Junction (4)X  15:00+2:1715:05+2:145m--21781.35648mECRPatna, Bihar
31HTZHathidah Junction (2)  15:14+2:1615:16+2:162m121789.66350mECRMusahari, Bihar
32BRYABarhiya (3)  15:25+2:2015:27+2:202m--21799.03547mECRBarahiya, Bihar
33LKRLuckeesarai Junction (2)  15:53+2:0515:55+2:062m--21814.1852mECRLakhisarai, Bihar
34KIULKiul Junction (5)X  16:05+1:3116:12+1:327m--21815.55153mECRDist. Lakhisarai, Bihar
35AHAAbhaipur (3)  16:39+2:0316:41+2:042m--21838.54252mERAbhaipur, Bihar
36JMPJamalpur Junction (4)X  17:12+1:5617:27+1:5215m--21860.36159mERJamalpur 06344-243101, Bihar
37BUPBariarpur (3)  17:38+2:0017:40+2:002m--21871.45442mERMunger, Bihar
38SGGSultanGanj (3)  18:00+1:5818:02+1:582m--21889.44542mERSultanganj, Bihar
39BGPBhagalpur Junction (6)  18:35+1:3618:50+1:3415m--21914.36949mERBhagalpur, Bihar
40CLGKahalgaon (2)X  19:16+2:0119:18+2:012m121944.43944mERBhagalpur, Bihar
41SBGSahibganj Junction (3)  20:25+1:1920:35+1:2210m121988.34538mERSahibganj, Jharkhand
42BHWBarharwa Junction (3)  21:48+1:1521:50+1:182m222042.74036mERBarharwa, Jharkhand
43NFKNew Farakka Junction (3)  22:17+1:1722:19+1:162m222060.73532mERDist - Murshidabad, West Bengal
44MLDTMalda Town (5)X  23:20+1:2723:35+1:2615m--22095.87430mERDist - Malda, West Bengal
45KNEKishanGanj (3)  01:35+1:2201:40+1:225m--32244.05052mNFRKishanganj, Bihar
46NJPNew Jalpaiguri Junction (8)X  03:25+1:2403:40+1:1615m--32331.352114mNFRCity-Siliguri . Dist-Jalpaiguri, West Bengal
47DQGDhupguri (2)  05:00 04:55+1:2305:05 05:00+1:235m--32396.66075mNFRDist - Jalpaiguri, West Bengal
48NCBNew Cooch Behar Junction (5)  06:05 06:00+1:1706:10 06:05+1:195m--32456.85647mNFRDist : Cooch Behar-736101, West Bengal
49NOQNew Alipurduar (2)  06:35 06:25+1:1506:40 06:30+1:155m--32475.44948mNFRDist - Alipurduar - 736121, West Bengal
50NBQNew Bongaigaon Junction (4)  08:40+3108:50+3310m--32582.14658mNFR783381., Assam
51BPRDBarpeta Road  09:52 09:47+3609:57 09:52+365m--32626.24749mNFRHowli, Assam
52RNYRangiya Junction (5)  11:15+4111:25+3710m--32691.13858mNFRRangia, Assam
53KYQKamakhya Junction (4)  12:30+3112:35+325m--32731.81755mNFRDist - KAMRUP, Assam
54GHYGuwahati (7)•  13:00+54---32738.7-60mNFRGuwahati, Assam
Scroll to Top
Scroll to Bottom